Hidden Valley, Valles Caldera, New Mexico Weather observations

Data are for 10 minute period ending at time listed.
 Day   Time   Solar   Ave.   Ave.  Ave.  Vector  Max.   Baro.   Total    
  of    of     Rad.   Air    Rel.  Wind   Wind   Wind  Press.  Precip.   
Year   Day            Temp.  Hum.  Speed  Dir.   Gust                    
2015   (MST)  Kw/m2    F      %     mph   deg.    mph    mb.     in.     
-------------------------------------------------------------------------
 149    8:30   0.56   56.7    30    3.5   264     6.1   749.8    0.00 
 149    8:40   0.65   57.0    30    2.6   273     5.8   749.8    0.00 
 149    8:50   0.71   57.8    31    2.7   248     5.7   749.7    0.00 
 149    9:00   0.78   58.5    30    3.1   273     7.0   749.7    0.00 
 149    9:10   0.79   60.1    34    2.4   206     7.2   749.7    0.00 
 149    9:20   0.84   59.5    32    2.4   241     9.0   749.7    0.00 
 149    9:30   0.91   60.4    31    3.1   232     8.4   749.7    0.00 
 149    9:40   0.89   60.5    29    3.0   300     6.2   749.8    0.00 
 149    9:50   0.93   60.7    31    2.6   192     6.3   749.8    0.00 
 149   10:00   0.94   60.9    29    2.1   310     5.2   749.7    0.00 
 149   10:10   0.87   61.4    28    2.2   245     5.3   749.9    0.00 
 149   10:20   0.71   60.8    26    2.5   300     6.4   749.9    0.00 
 149   10:30   0.73   60.5    27    2.8   279     7.9   749.9    0.00 
 149   10:40   0.89   61.1    26    2.3   296     6.1   749.9    0.00 
 149   10:50   0.85   60.9    27    2.8   234     7.2   749.9    0.00 
 149   11:00   1.05   61.8    28    3.5   260     7.2   749.9    0.00 
 149   11:10   0.91   61.1    28    3.4   290     9.5   749.8    0.00 
 149   11:20   0.82   60.9    28    3.5   291     7.7   749.8    0.00 
 149   11:30   0.84   61.9    29    2.9   282     8.3   749.8    0.00 
 149   11:40   0.88   62.1    31    2.0   280     6.2   749.8    0.00 
 149   11:50   1.10   61.9    32    4.0   260    10.1   749.8    0.00 
 149   12:00   0.70   61.3    32    2.8   225     6.6   749.7    0.00 
 149   12:10   0.55   59.5    33    4.1   274     7.2   749.9    0.00 
 149   12:20   1.04   61.9    32    1.7   267     5.6   749.9    0.00 
 149   12:30   0.96   61.5    29    3.7   284     7.8   749.8    0.00 
 149   12:40   0.69   61.7    28    3.0   257     7.4   749.8    0.00 
 149   12:50   1.02   62.9    28    2.1   335     6.7   749.7    0.00 
 149   13:00   1.19   63.0    28    3.1   301     8.1   749.7    0.00 
 149   13:10   0.79   62.7    27    2.4   261     6.6   749.7    0.00 
 149   13:20   0.88   63.2    26    2.9   319     6.6   749.7    0.00 
 149   13:30   0.56   61.8    26    3.4   331     7.6   749.6    0.00 
 149   13:40   0.98   62.5    26    2.5   331     6.8   749.6    0.00 
 149   13:50   0.72   63.8    27    2.1   304     6.1   749.4    0.00 
 149   14:00   1.01   63.5    26    3.0   258    12.6   749.3    0.00 
 149   14:10   0.83   63.5    26    3.0   264     6.9   749.4    0.00 
 149   14:20   0.49   62.2    24    2.9   247     9.2   749.4    0.00 
 149   14:30   0.59   62.3    25    2.9   258     6.1   749.3    0.00 
 149   14:40   0.41   61.6    25    3.0   249     8.2   749.3    0.00 
 149   14:50   0.91   62.6    27    3.6   236     7.5   749.2    0.00 
 149   15:00   0.89   64.2    26    3.3   333     9.5   749.1    0.00 
 149   15:10   0.89   63.6    24    3.5   317     8.6   749.1    0.00 
 149   15:20   0.84   64.4    24    2.9   261     7.1   749.1    0.00 
 149   15:30   0.69   63.9    23    3.6   262     8.9   749.1    0.00 
 149   15:40   0.75   63.9    22    3.1   272     8.1   749.0    0.00 
 149   15:50   0.63   63.5    21    2.9   282     7.9   749.0    0.00 
 149   16:00   0.52   63.3    21    3.3   246     7.5   748.9    0.00 
 149   16:10   0.56   63.5    20    3.2   260     7.5   749.0    0.00 
 149   16:20   0.45   63.0    20    2.0   244     5.1   749.0    0.00 
 149   16:30   0.60   63.6    18    3.6   245     8.4   749.0    0.00 
 149   16:40   0.43   62.8    15    4.0   249     8.8   749.0    0.00 
 149   16:50   0.38   62.7    17    2.2   248     5.0   749.0    0.00 
 149   17:00   0.30   62.7    17    2.8   232     5.9   749.0    0.00 
 149   17:10   0.32   62.1    18    3.0   246     7.0   749.1    0.00 
 149   17:20   0.38   62.7    18    2.2   245     3.9   749.2    0.00 
 149   17:30   0.24   62.3    19    2.9   241     6.3   749.2    0.01 
 149   17:40   0.24   61.3    20    3.1   236     6.2   749.3    0.00 
 149   17:50   0.24   61.5    19    2.3   248     4.9   749.3    0.00 
 149   18:00   0.25   62.1    19    1.5   284     4.5   749.4    0.00 
 149   18:10   0.21   60.5    19    2.5   322     5.1   749.4    0.00 
 149   18:20   0.10   59.0    21    0.9   256     2.8   749.5    0.00 
 149   18:30   0.05   58.4    20    1.5   278     4.1   749.5    0.00 
 149   18:40   0.05   57.3    23    1.9   240     3.9   749.6    0.00 
 149   18:50   0.04   56.3    24    1.5   252     3.7   749.6    0.00 
 149   19:00   0.03   53.9    28    1.7   252     2.7   749.7    0.00 
 149   19:10   0.02   52.0    30    1.9   262     2.4   749.9    0.00 
 149   19:20   0.01   50.2    35    1.8   267     2.5   749.9    0.00 
 149   19:30   0.00   48.8    36    1.9   256     2.5   750.0    0.00 
 149   19:40   0.00   48.5    35    2.1   251     2.5   750.0    0.00 
 149   19:50   0.00   47.6    36    2.0   254     2.7   750.1    0.00 
 149   20:00   0.00   44.4    44    0.7    68     1.9   750.2    0.00 
 149   20:10   0.00   38.1    62    0.1    94     0.7   750.3    0.00 
 149   20:20   0.00   36.5    66    0.1    25     0.6   750.4    0.00 
 149   20:30   0.00   39.5    58    1.2   283     2.4   750.4    0.00 
 149   20:40   0.00   44.0    44    2.0   258     2.8   750.4    0.00 
 149   20:50   0.00   47.6    36    2.3   267     3.2   750.4    0.00 
 149   21:00   0.00   48.1    35    2.0   266     3.1   750.5    0.00 
 149   21:10   0.00   46.1    42    1.4   255     2.8   750.5    0.00 
 149   21:20   0.00   41.4    53    0.7    98     1.5   750.6    0.00 
 149   21:30   0.00   40.6    57    1.5   340     3.4   750.7    0.00 
 149   21:40   0.00   41.1    52    1.6   333     3.4   750.9    0.00 
 149   21:50   0.00   41.6    52    0.5   124     1.2   750.9    0.00 
 149   22:00   0.00   38.5    61    0.4   149     1.3   750.9    0.00 
 149   22:10   0.00   36.0    68    0.1    13     1.1   751.0    0.00 
 149   22:20   0.00   34.9    74    0.3    82     0.8   751.1    0.00 
 149   22:30   0.00   34.6    79    0.3   171     0.9   751.2    0.00 
 149   22:40   0.00   33.2    79    0.5   183     1.4   751.3    0.00 
 149   22:50   0.00   33.7    77    0.8   179     1.7   751.4    0.00 
 149   23:00   0.00   31.9    87    0.6   350     1.2   751.5    0.00 
 149   23:10   0.00   30.9    84    0.7   159     1.3   751.6    0.00 
 149   23:20   0.00   33.1    82    0.8   214     1.7   751.7    0.00 
 149   23:30   0.00   31.1    82    0.6    34     1.2   751.7    0.00 
 149   23:40   0.00   29.3    90    0.7   297     1.5   751.8    0.00 
 149   23:50   0.00   29.5    88    0.4    45     1.4   751.8    0.00 
 150    0:00   0.00   28.8    90    0.9   149     1.9   751.8    0.00 
 150    0:10   0.00   30.2    87    0.6   145     1.6   751.7    0.00 
 150    0:20   0.00   29.6    86    0.6    47     2.1   751.7    0.00 
 150    0:30   0.00   31.3    91    0.8    52     2.1   751.7    0.00 
 150    0:40   0.00   31.8    87    1.8    66     3.4   751.7    0.00 
 150    0:50   0.00   32.3    88    1.5   323     3.5   751.8    0.00 
 150    1:00   0.00   32.2    86    0.5    17     1.4   751.8    0.00 
 150    1:10   0.00   31.7    86    0.7    28     1.9   751.8    0.00 
 150    1:20   0.00   31.3    88    0.6    55     1.6   751.8    0.00 
 150    1:30   0.00   31.2    88    0.7    17     1.8   751.9    0.00 
 150    1:40   0.00   30.7    88    0.9   348     1.6   751.8    0.00 
 150    1:50   0.00   30.6    87    1.0   169     2.0   751.8    0.00 
 150    2:00   0.00   30.9    87    0.6   292     1.4   751.8    0.00 
 150    2:10   0.00   29.6    88    0.7    24     1.3   751.9    0.00 
 150    2:20   0.00   29.8    89    0.5   248     1.7   752.0    0.00 
 150    2:30   0.00   30.1    90    0.6   178     1.5   751.9    0.00 
 150    2:40   0.00   29.6    89    0.6    33     2.1   752.0    0.00 
 150    2:50   0.00   29.0    92    0.4     7     1.6   752.0    0.00 
 150    3:00   0.00   28.8    91    0.2    32     0.9   752.1    0.00 
 150    3:10   0.00   28.4    93    0.5   168     1.4   752.1    0.00 
 150    3:20   0.00   28.8    95    0.4   192     1.2   752.1    0.00 
 150    3:30   0.00   27.7    94    0.7    17     1.4   752.2    0.00 
 150    3:40   0.00   26.9    96    1.1    36     1.8   752.3    0.00 
 150    3:50   0.00   28.1    98    0.5   190     2.1   752.3    0.00 
 150    4:00   0.00   29.6    97    0.8   357     1.7   752.3    0.00 
 150    4:10   0.00   30.5    95    0.9    18     2.3   752.4    0.00 
 150    4:20   0.00   30.7    96    0.9   341     1.5   752.3    0.00 
 150    4:30   0.00   30.7    97    0.6   343     1.6   752.3    0.00 
 150    4:40   0.00   30.3    96    0.4    47     1.6   752.4    0.00 
 150    4:50   0.00   30.5    97    0.5   164     1.3   752.5    0.00 
 150    5:00   0.00   30.9    98    0.4   163     1.4   752.6    0.00 
 150    5:10   0.01   32.4    99    0.6   244     1.9   752.6    0.00 
 150    5:20   0.01   34.0    98    0.8    25     1.6   752.7    0.00 
 150    5:30   0.02   37.0    99    0.9   309     3.4   752.7    0.00 
 150    5:40   0.04   40.1    98    0.8    16     2.3   752.8    0.00 
 150    5:50   0.05   43.0    95    0.8   128     1.8   752.8    0.00 
 150    6:00   0.05   44.4    90    0.6   157     1.8   752.8    0.00 
 150    6:10   0.07   45.1    89    0.3   211     1.8   752.8    0.00 
 150    6:20   0.08   45.4    87    0.7   181     2.7   752.9    0.00 
 150    6:30   0.12   45.7    87    1.5   144     5.3   752.9    0.00 
 150    6:40   0.18   46.0    86    1.7   175     4.7   752.9    0.00 
 150    6:50   0.21   46.8    84    1.4   183     3.2   753.0    0.00 
 150    7:00   0.20   47.0    83    1.4   176     3.5   753.0    0.00 
 150    7:10   0.15   46.7    83    1.4   190     4.4   753.1    0.00 
 150    7:20   0.16   46.4    83    1.7   166     3.8   753.1    0.00 
 150    7:30   0.21   46.8    82    1.4   174     5.5   753.1    0.00 
 150    7:40   0.37   47.8    80    1.6   191     5.2   753.1    0.00 
 150    7:50   0.38   48.3    79    2.2   184     4.6   753.1    0.00 
 150    8:00   0.36   48.6    77    2.2   156     4.3   753.2    0.00 
 150    8:10   0.33   48.7    78    1.4   152     4.1   753.2    0.00 
 150    8:20   0.42   48.3    78    3.3   164     6.2   753.2    0.00 

Return to Hidden Valley, Valles Caldera graphs page.


Western Regional Climate Center,wrcc@dri.edu